Granville, Vermont
Current Conditions -  °F | °C
As of 6:15 AM on Wednesday 26 Nov 2014 (Local Time) from K6B0 Reporting Station
Clear Clear  
Wind Chill: 36°   Ceiling: Unl
Heat Index: 36°   Visibility: 10mi
Dew Point: 23°   Wind: 3mph
Humidity: 58%   Direction: 10°N
Pressure: 30.19"   Gusts: NA
Location:  43.98°N, 72.85°W
Report Text: K6B0 261115Z AUTO 01003KT 10SM CLR 02/M05 A3019 RMK AO2 T00241052
Loading
Personal Weather Stations






























Interactive Weather Map New forecast layout! Learn more

10-Day Weather Forecast

Advertisements
Track Severe Weather on mobile